createdAt,value
2022-07-29T00:01:19.516Z,69.33
2022-07-29T00:03:49.080Z,69.75
2022-07-29T00:06:18.672Z,69.89
2022-07-29T00:08:47.939Z,69.52
2022-07-29T00:11:17.246Z,69.76
2022-07-29T00:13:50.841Z,70.04
2022-07-29T00:16:17.687Z,69.56
2022-07-29T00:18:47.029Z,69.77
2022-07-29T00:21:16.377Z,70.26
2022-07-29T00:23:45.666Z,70.45
2022-07-29T00:26:15.019Z,70.40
2022-07-29T00:28:44.276Z,70.76
2022-07-29T00:31:13.997Z,71.08
2022-07-29T00:33:43.269Z,71.12
2022-07-29T00:36:12.827Z,71.30
2022-07-29T00:38:43.864Z,71.42
2022-07-29T00:41:13.971Z,71.08
2022-07-29T00:43:43.674Z,71.24
2022-07-29T00:46:13.774Z,70.97
2022-07-29T00:48:43.305Z,71.35
2022-07-29T00:51:12.689Z,70.84
2022-07-29T00:53:42.049Z,70.80
2022-07-29T00:56:11.397Z,71.18
2022-07-29T00:58:41.434Z,71.49
2022-07-29T01:01:10.759Z,71.36
2022-07-29T01:03:40.055Z,71.29
2022-07-29T01:06:09.889Z,71.73
2022-07-29T01:08:39.439Z,72.10
2022-07-29T01:11:09.372Z,72.36
2022-07-29T01:13:39.079Z,72.30
2022-07-29T01:16:11.590Z,72.24
2022-07-29T01:18:44.161Z,72.88
2022-07-29T01:21:20.255Z,73.25
2022-07-29T01:24:23.182Z,72.80
2022-07-29T01:27:01.401Z,73.12
2022-07-29T01:29:40.372Z,73.25
2022-07-29T01:32:27.836Z,73.74
2022-07-29T01:34:54.443Z,74.02
2022-07-29T01:37:29.376Z,74.33
2022-07-29T01:40:00.368Z,74.14
2022-07-29T01:42:32.810Z,74.21
2022-07-29T01:45:17.014Z,74.40
2022-07-29T01:47:55.627Z,74.68
2022-07-29T01:50:28.038Z,75.01
2022-07-29T01:53:00.521Z,75.34
2022-07-29T01:55:31.701Z,75.48
2022-07-29T01:58:01.919Z,75.79
2022-07-29T02:00:32.768Z,75.75
2022-07-29T02:03:04.813Z,75.95
2022-07-29T02:05:35.343Z,76.08
2022-07-29T02:08:05.432Z,75.75
2022-07-29T02:10:35.639Z,75.86
2022-07-29T02:13:06.625Z,75.98
2022-07-29T02:15:36.655Z,76.09
2022-07-29T02:18:22.781Z,75.89
2022-07-29T02:20:54.435Z,76.27
2022-07-29T02:23:25.434Z,76.87
2022-07-29T02:25:57.108Z,77.38
2022-07-29T02:28:28.698Z,77.48
2022-07-29T02:31:02.742Z,77.77
2022-07-29T02:33:33.097Z,77.60
2022-07-29T02:36:03.352Z,77.60
2022-07-29T02:38:51.066Z,77.53
2022-07-29T02:41:32.960Z,77.64
2022-07-29T02:44:05.494Z,77.68
2022-07-29T02:46:36.934Z,78.25
2022-07-29T02:49:21.321Z,78.57
2022-07-29T02:52:16.491Z,78.45
2022-07-29T02:55:08.570Z,78.54
2022-07-29T02:57:53.739Z,78.32
2022-07-29T03:00:13.189Z,78.39
2022-07-29T03:02:45.061Z,78.65
2022-07-29T03:05:17.612Z,78.85
2022-07-29T03:07:47.845Z,78.73
2022-07-29T03:10:17.999Z,78.87
2022-07-29T03:12:47.665Z,78.71
2022-07-29T03:15:17.180Z,78.92
2022-07-29T03:17:46.825Z,78.86
2022-07-29T03:20:16.458Z,78.94
2022-07-29T03:22:48.294Z,78.90
2022-07-29T03:25:19.280Z,79.17
2022-07-29T03:27:49.406Z,79.27
2022-07-29T03:30:21.754Z,79.36
2022-07-29T03:32:51.875Z,79.94
2022-07-29T03:35:21.878Z,79.83
2022-07-29T03:37:51.653Z,79.72
2022-07-29T03:40:33.753Z,79.42
2022-07-29T03:43:03.952Z,79.99
2022-07-29T03:45:34.380Z,80.08
2022-07-29T03:48:09.546Z,79.73
2022-07-29T03:50:38.963Z,79.73
2022-07-29T03:53:08.320Z,79.69
2022-07-29T03:55:43.556Z,79.81
2022-07-29T03:58:13.853Z,80.46
2022-07-29T04:00:44.918Z,80.61
2022-07-29T04:03:15.730Z,80.69
2022-07-29T04:05:45.378Z,80.76
2022-07-29T04:08:14.673Z,80.78
2022-07-29T04:10:43.974Z,81.05
2022-07-29T04:13:13.257Z,81.01
2022-07-29T04:15:42.720Z,81.12
2022-07-29T04:18:12.025Z,81.11
2022-07-29T04:20:41.296Z,81.28
2022-07-29T04:23:10.767Z,81.38
2022-07-29T04:25:40.953Z,81.37
2022-07-29T04:28:10.763Z,81.20
2022-07-29T04:30:40.446Z,81.01
2022-07-29T04:33:10.082Z,80.61
2022-07-29T04:35:45.798Z,80.49
2022-07-29T04:38:15.820Z,80.04
2022-07-29T04:40:41.945Z,80.13
2022-07-29T04:43:11.186Z,80.59
2022-07-29T04:45:42.148Z,80.79
2022-07-29T04:48:11.565Z,81.11
2022-07-29T04:50:41.677Z,80.97
2022-07-29T04:53:10.931Z,80.46
2022-07-29T04:55:40.265Z,80.35
2022-07-29T04:58:09.511Z,80.30
2022-07-29T05:00:38.920Z,80.30
2022-07-29T05:03:08.212Z,80.43
2022-07-29T05:05:37.496Z,80.10
2022-07-29T05:08:06.844Z,79.95
2022-07-29T05:10:38.440Z,79.75
2022-07-29T05:13:08.561Z,79.49
2022-07-29T05:15:38.349Z,79.56
2022-07-29T05:18:08.067Z,79.19
2022-07-29T05:20:37.419Z,79.33
2022-07-29T05:23:06.711Z,79.25
2022-07-29T05:25:43.569Z,78.96
2022-07-29T05:28:07.791Z,78.50
2022-07-29T05:30:37.152Z,77.71
2022-07-29T05:33:06.488Z,78.07
2022-07-29T05:35:37.517Z,78.15
2022-07-29T05:38:06.890Z,77.82
2022-07-29T05:40:36.726Z,77.72
2022-07-29T05:43:05.968Z,77.15
2022-07-29T05:45:35.329Z,76.95
2022-07-29T05:48:06.436Z,77.28
2022-07-29T05:50:35.704Z,76.91
2022-07-29T05:53:19.722Z,76.55
2022-07-29T05:55:37.843Z,76.42
2022-07-29T05:58:08.815Z,76.85
2022-07-29T06:00:38.064Z,75.67
2022-07-29T06:03:07.303Z,75.45
2022-07-29T06:05:36.682Z,74.38
2022-07-29T06:08:09.502Z,73.86
2022-07-29T06:10:39.701Z,73.00
2022-07-29T06:13:09.055Z,72.95
2022-07-29T06:15:38.445Z,72.52
2022-07-29T06:18:09.363Z,71.70
2022-07-29T06:20:39.565Z,71.30
2022-07-29T06:23:08.870Z,70.48
2022-07-29T06:25:38.731Z,69.97
2022-07-29T06:28:07.986Z,68.74
2022-07-29T06:30:37.325Z,67.99
2022-07-29T06:33:06.735Z,68.48
2022-07-29T06:35:42.349Z,68.36
2022-07-29T06:38:34.162Z,66.59
2022-07-29T06:41:03.790Z,67.82
2022-07-29T06:43:50.444Z,67.17
2022-07-29T06:46:21.219Z,67.71
2022-07-29T06:48:50.973Z,67.90
2022-07-29T06:51:22.521Z,69.08
2022-07-29T06:53:59.979Z,69.13
2022-07-29T06:56:24.080Z,69.23
2022-07-29T06:58:54.059Z,69.12
2022-07-29T07:01:23.593Z,69.84
2022-07-29T07:03:52.900Z,70.27
2022-07-29T07:06:22.202Z,70.24
2022-07-29T07:08:51.481Z,69.09
2022-07-29T07:11:20.820Z,68.99
2022-07-29T07:13:50.133Z,70.04
2022-07-29T07:16:19.647Z,69.46
2022-07-29T07:18:49.033Z,69.34
2022-07-29T07:21:19.100Z,69.86
2022-07-29T07:23:49.136Z,70.18
2022-07-29T07:26:18.472Z,71.00
2022-07-29T07:28:47.709Z,71.35
2022-07-29T07:31:17.139Z,70.40
2022-07-29T07:33:46.413Z,69.97
2022-07-29T07:36:15.759Z,70.40
2022-07-29T07:38:45.080Z,70.24
2022-07-29T07:41:14.408Z,69.26
2022-07-29T07:43:43.884Z,67.27
2022-07-29T07:46:13.333Z,67.02
2022-07-29T07:48:43.045Z,67.08
2022-07-29T07:51:12.791Z,67.08
2022-07-29T07:53:42.026Z,66.82
2022-07-29T07:56:12.735Z,67.30
2022-07-29T07:58:42.527Z,66.89
2022-07-29T08:01:12.342Z,67.72
2022-07-29T08:03:41.649Z,67.39
2022-07-29T08:06:10.926Z,68.54
2022-07-29T08:08:40.280Z,67.19
2022-07-29T08:11:10.054Z,67.15
2022-07-29T08:13:40.281Z,66.71
2022-07-29T08:16:13.955Z,66.32
2022-07-29T08:18:44.834Z,66.42
2022-07-29T08:21:15.597Z,66.91
2022-07-29T08:23:51.494Z,67.51
2022-07-29T08:26:18.101Z,67.84
2022-07-29T08:28:49.534Z,65.93
2022-07-29T08:31:19.398Z,65.44
2022-07-29T08:33:48.683Z,65.96
2022-07-29T08:36:17.973Z,66.19
2022-07-29T08:38:47.392Z,64.88
2022-07-29T08:41:17.753Z,64.70
2022-07-29T08:43:47.693Z,64.94
2022-07-29T08:46:18.353Z,64.26
2022-07-29T08:48:51.464Z,63.84
2022-07-29T08:51:22.321Z,63.28
2022-07-29T08:53:52.602Z,62.60
2022-07-29T08:56:22.030Z,62.39
2022-07-29T08:58:52.718Z,64.17
2022-07-29T09:01:36.064Z,61.95
2022-07-29T09:03:59.209Z,63.07
2022-07-29T09:06:33.238Z,63.62
2022-07-29T09:09:02.600Z,62.80
2022-07-29T09:11:33.482Z,60.42
2022-07-29T09:14:02.888Z,61.32
2022-07-29T09:16:57.733Z,61.57
2022-07-29T09:19:33.218Z,62.38
2022-07-29T09:22:04.317Z,61.14
2022-07-29T09:24:41.185Z,60.28
2022-07-29T09:27:27.040Z,61.30
2022-07-29T09:30:01.523Z,61.62
2022-07-29T09:32:31.335Z,61.19
2022-07-29T09:35:21.361Z,58.45
2022-07-29T09:37:51.255Z,59.26
2022-07-29T09:40:23.261Z,58.64
2022-07-29T09:42:54.898Z,57.47
2022-07-29T09:45:32.981Z,58.11
2022-07-29T09:48:22.076Z,57.94
2022-07-29T09:50:51.984Z,56.82
2022-07-29T09:53:40.976Z,52.90
2022-07-29T09:56:11.690Z,52.32
2022-07-29T09:58:41.184Z,48.16
2022-07-29T10:01:10.645Z,43.66
2022-07-29T10:03:53.484Z,40.92
2022-07-29T10:06:24.588Z,37.71
2022-07-29T10:08:53.929Z,36.01
2022-07-29T10:11:23.611Z,34.70
2022-07-29T10:13:52.853Z,35.22
2022-07-29T10:16:22.290Z,36.77
2022-07-29T10:18:52.107Z,34.64
2022-07-29T10:21:35.082Z,34.09
2022-07-29T10:23:54.431Z,32.45
2022-07-29T10:26:25.750Z,31.22
2022-07-29T10:28:55.131Z,31.82
2022-07-29T10:31:30.260Z,31.94
2022-07-29T10:34:17.869Z,33.32
2022-07-29T10:36:57.468Z,34.05
2022-07-29T10:39:49.871Z,31.99
2022-07-29T10:42:33.289Z,30.52
2022-07-29T10:44:56.880Z,31.54
2022-07-29T10:47:28.072Z,31.79
2022-07-29T10:49:57.341Z,29.89
2022-07-29T10:52:30.290Z,30.71
2022-07-29T10:55:01.309Z,29.63
2022-07-29T10:57:53.881Z,29.36
2022-07-29T11:00:11.591Z,28.82
2022-07-29T11:02:44.714Z,29.95
2022-07-29T11:05:15.485Z,28.92
2022-07-29T11:08:19.712Z,29.12
2022-07-29T11:10:44.653Z,29.07
2022-07-29T11:13:14.318Z,29.98
2022-07-29T11:15:56.545Z,30.24
2022-07-29T11:18:26.080Z,28.42
2022-07-29T11:20:55.435Z,28.70
2022-07-29T11:23:33.835Z,28.67
2022-07-29T11:26:18.937Z,28.64
2022-07-29T11:29:12.622Z,28.17
2022-07-29T11:31:44.267Z,29.03
2022-07-29T11:34:30.764Z,28.26
2022-07-29T11:37:15.117Z,27.83
2022-07-29T11:39:47.434Z,29.60
2022-07-29T11:42:32.999Z,29.18
2022-07-29T11:45:41.520Z,32.84
2022-07-29T11:47:41.589Z,32.04
2022-07-29T11:50:14.437Z,30.50
2022-07-29T11:52:49.802Z,31.72
2022-07-29T11:55:22.089Z,31.79
2022-07-29T11:58:04.007Z,32.45
2022-07-29T12:00:35.492Z,31.62
2022-07-29T12:03:08.470Z,31.39
2022-07-29T12:05:48.261Z,30.63
2022-07-29T12:08:19.009Z,27.23
2022-07-29T12:10:50.818Z,28.63
2022-07-29T12:13:22.214Z,28.94
2022-07-29T12:15:59.993Z,31.71
2022-07-29T12:18:29.229Z,29.84
2022-07-29T12:21:05.496Z,28.47
2022-07-29T12:23:35.548Z,29.06
2022-07-29T12:26:11.108Z,28.23
2022-07-29T12:28:41.471Z,27.95
2022-07-29T12:31:43.449Z,27.38
2022-07-29T12:33:51.600Z,27.85
2022-07-29T12:36:20.935Z,27.67
2022-07-29T12:38:50.402Z,28.00
2022-07-29T12:41:21.589Z,27.98
2022-07-29T12:43:55.506Z,27.98
2022-07-29T12:46:24.803Z,27.70
2022-07-29T12:48:56.821Z,27.51
2022-07-29T12:51:37.604Z,28.38
2022-07-29T12:54:09.423Z,26.97
2022-07-29T12:56:44.307Z,28.84
2022-07-29T12:59:17.707Z,29.25
2022-07-29T13:01:51.446Z,30.05
2022-07-29T13:04:32.296Z,28.87
2022-07-29T13:07:04.616Z,29.71
2022-07-29T13:09:45.022Z,28.14
2022-07-29T13:12:15.819Z,28.91
2022-07-29T13:14:53.666Z,27.84
2022-07-29T13:17:32.700Z,30.30
2022-07-29T13:20:11.290Z,29.62
2022-07-29T13:22:41.044Z,29.21
2022-07-29T13:25:11.514Z,28.41
2022-07-29T13:27:41.558Z,29.99
2022-07-29T13:30:12.296Z,28.95
2022-07-29T13:32:41.582Z,31.15
2022-07-29T13:35:11.325Z,33.13
2022-07-29T13:37:40.681Z,31.12
2022-07-29T13:40:11.127Z,33.12
2022-07-29T13:42:40.482Z,33.36
2022-07-29T13:45:11.650Z,33.85
2022-07-29T13:47:47.660Z,34.99
2022-07-29T13:50:13.050Z,34.34
2022-07-29T13:52:42.327Z,35.07
2022-07-29T13:55:11.579Z,34.61
2022-07-29T13:57:40.830Z,34.29
2022-07-29T14:00:11.526Z,33.34
2022-07-29T14:02:40.832Z,35.48
2022-07-29T14:05:11.193Z,36.47
2022-07-29T14:07:40.794Z,35.71
2022-07-29T14:10:10.921Z,36.28
2022-07-29T14:12:41.976Z,36.49
2022-07-29T14:15:11.616Z,36.70
2022-07-29T14:17:40.909Z,38.61
2022-07-29T14:20:10.745Z,35.85
2022-07-29T14:22:42.653Z,36.39
2022-07-29T14:25:14.958Z,37.86
2022-07-29T14:27:42.329Z,36.93
2022-07-29T14:30:12.234Z,37.80
2022-07-29T14:32:41.578Z,37.34
2022-07-29T14:35:11.002Z,37.20
2022-07-29T14:37:43.273Z,37.79
2022-07-29T14:40:12.965Z,39.15
2022-07-29T14:42:42.377Z,39.41
2022-07-29T14:45:12.086Z,40.63
2022-07-29T14:47:41.825Z,41.67
2022-07-29T14:50:11.429Z,40.61
2022-07-29T14:52:40.720Z,41.55
2022-07-29T14:55:19.839Z,41.94
2022-07-29T14:57:41.241Z,42.10
2022-07-29T15:00:12.174Z,41.18
2022-07-29T15:03:00.949Z,38.80
2022-07-29T15:05:12.623Z,38.41
2022-07-29T15:07:41.973Z,38.18
2022-07-29T15:10:11.308Z,38.56
2022-07-29T15:12:42.351Z,38.14
2022-07-29T15:15:12.694Z,39.92
2022-07-29T15:17:43.541Z,38.51
2022-07-29T15:20:13.346Z,38.96
2022-07-29T15:22:43.970Z,38.07
2022-07-29T15:25:13.478Z,40.11
2022-07-29T15:27:42.903Z,39.84
2022-07-29T15:30:31.603Z,40.65
2022-07-29T15:32:46.911Z,43.46
2022-07-29T15:35:16.185Z,41.92
2022-07-29T15:37:48.898Z,41.69
2022-07-29T15:40:17.078Z,43.44
2022-07-29T15:42:46.482Z,42.29
2022-07-29T15:45:15.740Z,42.07
2022-07-29T15:47:46.702Z,42.85
2022-07-29T15:50:16.826Z,43.61
2022-07-29T15:52:46.992Z,41.04
2022-07-29T15:55:16.535Z,44.01
2022-07-29T15:57:45.770Z,40.23
2022-07-29T16:00:17.302Z,42.29
2022-07-29T16:02:46.589Z,41.39
2022-07-29T16:05:15.949Z,42.17
2022-07-29T16:07:45.195Z,42.20
2022-07-29T16:10:14.680Z,38.82
2022-07-29T16:12:45.644Z,40.45
2022-07-29T16:15:15.397Z,41.38
2022-07-29T16:17:44.994Z,41.48
2022-07-29T16:20:14.259Z,42.22
2022-07-29T16:22:43.665Z,41.46
2022-07-29T16:25:13.195Z,40.53
2022-07-29T16:27:42.507Z,39.65
2022-07-29T16:30:12.667Z,39.05
2022-07-29T16:32:42.095Z,43.39
2022-07-29T16:35:11.757Z,42.59
2022-07-29T16:37:41.071Z,40.45
2022-07-29T16:40:11.421Z,41.74
2022-07-29T16:42:47.028Z,42.06
2022-07-29T16:45:13.048Z,43.15
2022-07-29T16:47:42.418Z,40.88
2022-07-29T16:50:12.495Z,39.82
2022-07-29T16:52:41.792Z,40.87
2022-07-29T16:55:11.300Z,42.47
2022-07-29T16:57:42.304Z,42.82
2022-07-29T17:00:12.816Z,42.39
2022-07-29T17:02:42.176Z,42.71
2022-07-29T17:05:12.442Z,44.64
2022-07-29T17:07:42.719Z,44.38
2022-07-29T17:10:12.379Z,42.90
2022-07-29T17:12:42.403Z,43.17
2022-07-29T17:15:13.045Z,41.91
2022-07-29T17:17:55.144Z,42.85
2022-07-29T17:20:13.529Z,44.03
2022-07-29T17:22:44.503Z,42.46
2022-07-29T17:25:20.597Z,42.44
2022-07-29T17:27:45.148Z,42.64
2022-07-29T17:30:14.707Z,43.29
2022-07-29T17:32:43.975Z,45.35
2022-07-29T17:35:31.211Z,44.15
2022-07-29T17:38:00.467Z,43.96
2022-07-29T17:40:29.887Z,44.06
2022-07-29T17:42:59.203Z,45.16
2022-07-29T17:45:49.349Z,45.56
2022-07-29T17:47:59.769Z,44.90
2022-07-29T17:50:29.080Z,46.32
2022-07-29T17:52:58.328Z,45.60
2022-07-29T17:55:27.646Z,46.59
2022-07-29T17:57:59.981Z,47.37
2022-07-29T18:00:28.092Z,48.42
2022-07-29T18:02:57.430Z,49.85
2022-07-29T18:05:26.651Z,49.32
2022-07-29T18:07:59.047Z,50.34
2022-07-29T18:10:28.305Z,50.20
2022-07-29T18:12:57.594Z,51.17
2022-07-29T18:15:26.987Z,51.25
2022-07-29T18:17:57.789Z,51.75
2022-07-29T18:20:27.917Z,51.39
2022-07-29T18:22:57.232Z,52.83
2022-07-29T18:25:26.797Z,53.28
2022-07-29T18:28:00.363Z,53.76
2022-07-29T18:30:27.504Z,53.49
2022-07-29T18:33:19.656Z,53.71
2022-07-29T18:35:27.885Z,54.64
2022-07-29T18:38:00.744Z,54.68
2022-07-29T18:40:28.570Z,54.89
2022-07-29T18:42:59.191Z,55.26
2022-07-29T18:45:29.035Z,54.89
2022-07-29T18:47:58.557Z,55.63
2022-07-29T18:50:29.782Z,55.61
2022-07-29T18:53:01.754Z,56.19
2022-07-29T18:55:31.080Z,56.73
2022-07-29T18:58:00.568Z,56.68
2022-07-29T19:00:30.662Z,56.56
2022-07-29T19:03:00.107Z,57.18
2022-07-29T19:05:29.457Z,56.92
2022-07-29T19:07:59.437Z,57.61
2022-07-29T19:10:33.267Z,58.02
2022-07-29T19:13:02.846Z,57.76
2022-07-29T19:15:32.074Z,57.74
2022-07-29T19:18:01.594Z,58.00
2022-07-29T19:20:30.965Z,58.21
2022-07-29T19:23:00.396Z,59.12
2022-07-29T19:25:29.985Z,59.64
2022-07-29T19:27:59.588Z,59.74
2022-07-29T19:30:28.860Z,59.38
2022-07-29T19:32:58.617Z,60.06
2022-07-29T19:35:33.749Z,60.83
2022-07-29T19:38:04.246Z,61.55
2022-07-29T19:40:33.494Z,62.02
2022-07-29T19:43:02.988Z,62.39
2022-07-29T19:45:34.604Z,62.73
2022-07-29T19:48:05.184Z,63.14
2022-07-29T19:50:34.515Z,63.41
2022-07-29T19:53:03.961Z,63.90
2022-07-29T19:55:33.506Z,64.45
2022-07-29T19:58:04.693Z,64.98
2022-07-29T20:00:36.143Z,65.32
2022-07-29T20:03:06.004Z,66.20
2022-07-29T20:05:35.467Z,67.16
2022-07-29T20:08:06.383Z,68.02
2022-07-29T20:10:35.822Z,68.64
2022-07-29T20:13:05.355Z,68.89
2022-07-29T20:15:34.730Z,70.11
2022-07-29T20:18:04.267Z,70.45
2022-07-29T20:20:33.591Z,70.67
2022-07-29T20:23:03.713Z,71.18
2022-07-29T20:25:34.527Z,71.37
2022-07-29T20:28:03.877Z,71.78
2022-07-29T20:30:33.184Z,72.49
2022-07-29T20:33:02.489Z,72.71
2022-07-29T20:35:32.541Z,73.56
2022-07-29T20:38:02.003Z,74.02
2022-07-29T20:40:31.297Z,74.46
2022-07-29T20:43:00.781Z,75.18
2022-07-29T20:45:30.445Z,75.77
2022-07-29T20:47:59.763Z,76.16
2022-07-29T20:50:29.983Z,76.17
2022-07-29T20:52:59.330Z,76.58
2022-07-29T20:55:28.774Z,76.75
2022-07-29T20:57:58.400Z,76.91
2022-07-29T21:00:28.766Z,77.50
2022-07-29T21:02:58.707Z,78.28
2022-07-29T21:05:28.056Z,78.82
2022-07-29T21:07:58.325Z,78.97
2022-07-29T21:10:29.457Z,79.24
2022-07-29T21:13:01.002Z,79.36
2022-07-29T21:15:31.182Z,79.36
2022-07-29T21:18:05.253Z,79.67
2022-07-29T21:20:34.601Z,79.43
2022-07-29T21:23:03.858Z,79.44
2022-07-29T21:25:35.017Z,79.98
2022-07-29T21:28:22.383Z,80.56
2022-07-29T21:30:51.666Z,81.02
2022-07-29T21:33:21.123Z,81.11
2022-07-29T21:38:21.954Z,81.95
2022-07-29T21:40:52.599Z,82.63
2022-07-29T21:43:22.715Z,83.69
2022-07-29T21:45:52.100Z,84.11
2022-07-29T21:48:22.612Z,84.31
2022-07-29T21:50:52.603Z,84.50
2022-07-29T21:53:23.068Z,85.20
2022-07-29T21:55:55.499Z,85.30
2022-07-29T21:58:24.993Z,85.64
2022-07-29T22:00:54.412Z,86.19
2022-07-29T22:03:24.050Z,86.77
2022-07-29T22:05:53.393Z,86.94
2022-07-29T22:08:22.776Z,87.05
2022-07-29T22:10:52.202Z,87.37
2022-07-29T22:13:21.483Z,87.50
2022-07-29T22:15:50.836Z,87.63
2022-07-29T22:18:21.329Z,87.86
2022-07-29T22:20:51.255Z,88.43
2022-07-29T22:23:20.585Z,88.75
2022-07-29T22:25:50.219Z,88.71
2022-07-29T22:28:19.484Z,88.70
2022-07-29T22:30:48.910Z,88.59
2022-07-29T22:33:18.410Z,88.78
2022-07-29T22:35:48.551Z,88.71
2022-07-29T22:38:19.143Z,88.99
2022-07-29T22:40:50.769Z,88.97
2022-07-29T22:43:20.377Z,88.81
2022-07-29T22:45:49.722Z,89.66
2022-07-29T22:48:19.124Z,89.71
2022-07-29T22:50:48.557Z,89.85
2022-07-29T22:53:17.851Z,89.92
2022-07-29T22:55:48.035Z,90.15
2022-07-29T22:58:17.562Z,90.18
2022-07-29T23:00:46.938Z,90.49
2022-07-29T23:03:16.274Z,90.37
2022-07-29T23:05:45.595Z,90.46
2022-07-29T23:08:15.001Z,90.51
2022-07-29T23:10:44.288Z,90.51
2022-07-29T23:13:14.056Z,90.56
2022-07-29T23:15:43.510Z,90.87
2022-07-29T23:18:12.993Z,91.07
2022-07-29T23:20:43.888Z,91.17
2022-07-29T23:23:13.123Z,91.27
2022-07-29T23:25:42.458Z,91.02
2022-07-29T23:28:13.258Z,90.97
2022-07-29T23:30:43.572Z,91.02
2022-07-29T23:33:12.815Z,91.42
2022-07-29T23:35:42.437Z,91.53
2022-07-29T23:38:11.799Z,91.60
2022-07-29T23:40:41.143Z,91.72
2022-07-29T23:43:10.597Z,91.73
2022-07-29T23:45:44.944Z,91.65
2022-07-29T23:48:11.051Z,91.77
2022-07-29T23:50:40.388Z,92.03
2022-07-29T23:53:09.682Z,92.37
2022-07-29T23:55:39.414Z,92.42
2022-07-29T23:58:08.768Z,92.44
